Time;durP1;ratioP1;P1;durP2;ratioP2;P2;SDS_P1;SDS_P2;PMS_P1;PMS_P2;Temp;Humidity;BMP_temperature;BMP_pressure;BME280_temperature;BME280_humidity;BME280_pressure;Samples;Min_cycle;Max_cycle;Signal;HPM_P1;HPM_P2
2021/04/21 00:01:30;;;;;;;21.48;13.80;;;8.90;72.80;;;;;;5074063;28;20031;-78
2021/04/21 00:03:56;;;;;;;21.92;13.82;;;8.80;72.90;;;;;;5074100;28;20024;-79
2021/04/21 00:06:23;;;;;;;19.40;13.52;;;8.80;73.10;;;;;;5074307;28;20060;-80
2021/04/21 00:08:50;;;;;;;22.67;13.75;;;8.80;73.20;;;;;;5072064;28;20078;-79
2021/04/21 00:11:17;;;;;;;19.17;13.43;;;8.70;73.20;;;;;;5074398;28;20059;-79
2021/04/21 00:13:45;;;;;;;24.30;14.25;;;8.70;73.40;;;;;;5074109;28;20074;-79
2021/04/21 00:16:13;;;;;;;20.13;13.15;;;8.60;73.50;;;;;;5073994;28;20567;-79
2021/04/21 00:18:43;;;;;;;21.25;14.63;;;8.60;73.60;;;;;;5073689;28;20444;-78
2021/04/21 00:21:10;;;;;;;20.80;13.57;;;8.60;73.80;;;;;;5073900;28;20124;-78
2021/04/21 00:23:38;;;;;;;19.13;13.57;;;8.60;73.80;;;;;;5073216;28;20407;-78
2021/04/21 00:29:28;;;;;;;18.63;12.75;;;8.50;74.10;;;;;;5053463;28;20110;-78
2021/04/21 00:31:55;;;;;;;21.33;13.85;;;8.50;74.00;;;;;;5054181;28;20040;-79
2021/04/21 00:34:24;;;;;;;21.92;14.35;;;8.50;74.20;;;;;;5058069;28;20049;-78
2021/04/21 00:36:53;;;;;;;20.40;13.63;;;8.50;74.30;;;;;;5072772;28;20059;-78
2021/04/21 00:39:22;;;;;;;27.23;16.05;;;8.40;74.30;;;;;;5074680;28;20041;-79
2021/04/21 00:42:23;;;;;;;22.77;14.40;;;8.40;74.40;;;;;;5074032;28;20028;-78
2021/04/21 00:45:02;;;;;;;22.08;13.20;;;8.40;74.60;;;;;;5073557;28;20025;-79
2021/04/21 00:47:38;;;;;;;22.17;14.60;;;8.30;74.50;;;;;;5074859;28;20024;-79
2021/04/21 00:50:27;;;;;;;21.58;14.70;;;8.30;74.60;;;;;;5077431;28;20377;-79
2021/04/21 00:53:23;;;;;;;24.70;14.13;;;8.30;75.40;;;;;;5072985;28;20060;-78
2021/04/21 00:56:23;;;;;;;24.80;14.80;;;8.20;74.90;;;;;;5077148;28;20109;-79
2021/04/21 00:59:06;;;;;;;23.25;14.85;;;8.20;75.10;;;;;;5076608;28;20374;-80
2021/04/21 01:01:33;;;;;;;21.58;14.00;;;8.10;75.10;;;;;;5077604;28;20024;-80
2021/04/21 01:04:00;;;;;;;24.85;14.98;;;8.10;75.20;;;;;;5076790;28;20033;-80
2021/04/21 01:06:46;;;;;;;24.95;15.30;;;8.10;75.40;;;;;;5075314;28;20024;-80
2021/04/21 01:09:17;;;;;;;24.52;15.07;;;8.10;75.70;;;;;;5076477;28;20390;-80
2021/04/21 01:11:53;;;;;;;23.10;15.25;;;8.00;75.60;;;;;;5076729;28;20382;-80
2021/04/21 01:14:26;;;;;;;23.38;14.70;;;8.00;75.80;;;;;;5076150;28;20071;-79
2021/04/21 01:16:57;;;;;;;24.30;15.27;;;8.00;75.80;;;;;;5076259;28;20039;-78
2021/04/21 01:19:46;;;;;;;27.70;16.05;;;8.00;76.00;;;;;;5076793;28;20115;-79
2021/04/21 01:22:34;;;;;;;27.73;16.30;;;7.90;76.10;;;;;;5074866;28;20029;-79
2021/04/21 01:25:06;;;;;;;26.65;16.23;;;7.90;76.10;;;;;;5076707;28;20032;-79
2021/04/21 01:30:56;;;;;;;27.13;16.00;;;7.80;76.20;;;;;;5076647;28;20059;-79
2021/04/21 01:33:25;;;;;;;24.42;14.90;;;7.80;76.30;;;;;;5075188;28;20041;-79
2021/04/21 01:36:03;;;;;;;25.92;15.63;;;7.80;76.60;;;;;;5076247;28;20032;-79
2021/04/21 01:38:30;;;;;;;27.00;16.50;;;7.80;76.80;;;;;;5075670;28;20032;-78
2021/04/21 01:40:58;;;;;;;29.10;16.83;;;7.80;76.80;;;;;;5074756;28;20063;-79
2021/04/21 01:44:22;;;;;;;26.15;16.80;;;7.80;76.90;;;;;;5076536;28;20028;-80
2021/04/21 01:46:56;;;;;;;24.60;15.82;;;7.80;77.00;;;;;;5066486;28;20051;-81
2021/04/21 01:49:22;;;;;;;30.98;17.63;;;7.90;76.90;;;;;;5075048;28;20035;-79
2021/04/21 01:52:00;;;;;;;29.50;17.33;;;7.90;76.90;;;;;;5075945;28;20016;-79
2021/04/21 01:54:29;;;;;;;26.35;16.40;;;7.90;76.90;;;;;;5075070;28;20027;-79
2021/04/21 01:57:01;;;;;;;28.52;16.88;;;7.90;76.90;;;;;;5075796;28;20089;-79
2021/04/21 01:59:49;;;;;;;26.23;17.40;;;7.90;77.00;;;;;;5073884;28;20035;-79
2021/04/21 02:02:25;;;;;;;27.23;17.42;;;7.90;77.00;;;;;;5071995;28;20583;-79
2021/04/21 02:05:19;;;;;;;26.13;17.00;;;7.90;77.10;;;;;;5075343;28;20029;-79
2021/04/21 02:08:01;;;;;;;28.58;17.40;;;7.90;77.20;;;;;;5075148;28;20065;-78
2021/04/21 02:11:00;;;;;;;29.00;17.45;;;7.90;77.20;;;;;;5075930;28;20024;-79
2021/04/21 02:13:42;;;;;;;28.77;17.88;;;7.90;77.20;;;;;;5075694;28;20466;-80
2021/04/21 02:16:35;;;;;;;35.67;19.83;;;7.90;77.10;;;;;;5075614;28;20510;-79
2021/04/21 02:19:35;;;;;;;32.00;19.85;;;8.00;77.10;;;;;;5065197;28;20071;-79
2021/04/21 02:22:26;;;;;;;29.73;18.10;;;8.00;77.10;;;;;;5075145;28;20413;-80
2021/04/21 02:25:09;;;;;;;28.08;17.25;;;8.00;77.00;;;;;;5075703;28;20097;-80
2021/04/21 02:31:24;;;;;;;30.15;17.92;;;8.00;77.10;;;;;;5055772;28;20060;-79
2021/04/21 02:33:55;;;;;;;28.42;17.38;;;8.10;77.00;;;;;;5055092;28;20040;-79
2021/04/21 02:36:50;;;;;;;30.92;18.70;;;8.10;76.90;;;;;;5055196;28;20025;-79
2021/04/21 02:39:33;;;;;;;31.73;18.73;;;8.10;76.80;;;;;;5054758;28;20039;-79
2021/04/21 02:41:59;;;;;;;30.60;18.85;;;8.10;76.60;;;;;;5054244;28;20029;-80
2021/04/21 02:44:43;;;;;;;30.95;18.67;;;8.10;76.60;;;;;;5055030;28;20106;-80
2021/04/21 02:47:15;;;;;;;34.80;20.33;;;8.20;76.60;;;;;;5054690;28;20025;-80
2021/04/21 02:50:03;;;;;;;35.90;20.60;;;8.20;76.50;;;;;;5055010;28;20028;-80
2021/04/21 02:52:34;;;;;;;32.70;19.80;;;8.20;76.40;;;;;;5054879;28;20057;-80
2021/04/21 02:55:22;;;;;;;33.13;20.50;;;8.10;76.20;;;;;;5053104;28;20033;-82
2021/04/21 02:57:59;;;;;;;36.42;21.63;;;8.10;76.30;;;;;;5053748;28;20033;-80
2021/04/21 03:01:20;;;;;;;43.97;23.65;;;8.00;76.20;;;;;;5052505;28;20025;-79
2021/04/21 03:03:59;;;;;;;42.28;23.52;;;8.00;76.20;;;;;;5051431;28;20136;-79
2021/04/21 03:06:31;;;;;;;36.35;22.27;;;8.00;76.00;;;;;;5055255;28;20108;-80
2021/04/21 03:09:01;;;;;;;38.15;21.73;;;7.90;76.10;;;;;;5053367;28;20037;-80
2021/04/21 03:11:29;;;;;;;36.08;23.13;;;7.80;76.30;;;;;;5056621;28;20025;-78
2021/04/21 03:14:24;;;;;;;37.28;22.35;;;7.80;76.50;;;;;;5059977;28;20025;-79
2021/04/21 03:16:55;;;;;;;37.83;20.98;;;7.80;76.70;;;;;;5054123;28;20056;-78
2021/04/21 03:19:26;;;;;;;35.72;21.63;;;7.80;76.60;;;;;;5054588;28;20116;-79
2021/04/21 03:22:00;;;;;;;35.50;21.77;;;7.80;76.60;;;;;;5054402;28;20076;-79
2021/04/21 03:24:34;;;;;;;39.17;23.50;;;7.80;76.80;;;;;;5054094;28;20047;-79
2021/04/21 03:27:05;;;;;;;48.83;27.85;;;7.70;76.70;;;;;;5053457;28;20368;-80
2021/04/21 03:32:59;;;;;;;67.85;31.20;;;7.70;77.00;;;;;;5073506;28;20505;-81
2021/04/21 03:35:26;;;;;;;89.35;36.58;;;7.70;76.70;;;;;;5073806;28;20116;-80
2021/04/21 03:38:01;;;;;;;70.90;33.38;;;7.60;76.70;;;;;;5056399;28;20028;-80
2021/04/21 03:40:27;;;;;;;74.57;32.50;;;7.60;77.00;;;;;;5072398;28;20024;-80
2021/04/21 03:42:54;;;;;;;77.82;34.25;;;7.60;77.10;;;;;;5072529;28;20043;-80
2021/04/21 03:45:21;;;;;;;68.15;30.45;;;7.50;77.10;;;;;;5073383;28;20028;-81
2021/04/21 03:47:48;;;;;;;66.90;31.20;;;7.50;77.30;;;;;;5073199;28;20069;-81
2021/04/21 03:50:16;;;;;;;56.25;26.55;;;7.50;77.40;;;;;;5073222;28;20028;-80
2021/04/21 03:52:49;;;;;;;44.65;24.42;;;7.50;77.50;;;;;;5072233;28;20025;-80
2021/04/21 03:55:16;;;;;;;43.55;22.30;;;7.50;77.60;;;;;;5073441;28;20040;-80
2021/04/21 03:57:47;;;;;;;43.70;24.13;;;7.50;77.60;;;;;;5073542;28;20040;-80
2021/04/21 04:00:20;;;;;;;41.65;23.42;;;7.50;77.90;;;;;;5073571;28;20029;-80
2021/04/21 04:02:56;;;;;;;40.38;23.23;;;7.50;78.00;;;;;;5073516;28;20032;-79
2021/04/21 04:05:39;;;;;;;40.67;22.10;;;7.50;78.10;;;;;;5072863;28;20106;-79
2021/04/21 04:08:13;;;;;;;34.80;21.73;;;7.60;78.80;;;;;;5073223;28;20047;-82
2021/04/21 04:10:45;;;;;;;51.03;23.17;;;7.60;78.10;;;;;;5073772;28;20464;-80
2021/04/21 04:13:13;;;;;;;47.42;22.67;;;7.70;78.10;;;;;;5073475;28;20039;-78
2021/04/21 04:15:40;;;;;;;37.80;21.65;;;7.80;78.20;;;;;;5073130;28;20471;-79
2021/04/21 04:18:06;;;;;;;39.25;22.20;;;7.90;78.20;;;;;;5072257;28;20064;-81
2021/04/21 04:20:37;;;;;;;34.00;20.52;;;8.00;78.00;;;;;;5073242;28;20028;-80
2021/04/21 04:23:08;;;;;;;39.03;21.48;;;8.10;78.00;;;;;;5075733;28;20506;-80
2021/04/21 04:25:57;;;;;;;42.03;23.80;;;8.10;77.70;;;;;;5077230;28;20390;-81
2021/04/21 04:30:53;;;;;;;36.80;20.95;;;8.30;77.20;;;;;;5069286;28;20143;-80
2021/04/21 04:33:23;;;;;;;35.95;21.10;;;8.40;77.20;;;;;;5077281;28;20052;-80
2021/04/21 04:35:49;;;;;;;34.45;20.23;;;8.60;77.10;;;;;;5077171;28;20063;-80
2021/04/21 04:38:15;;;;;;;34.92;20.67;;;8.60;76.90;;;;;;5076700;28;20036;-81
2021/04/21 04:40:42;;;;;;;36.22;20.80;;;8.70;76.70;;;;;;5076813;28;20111;-80
2021/04/21 04:43:11;;;;;;;33.50;19.58;;;8.80;76.60;;;;;;5076704;28;20031;-82
2021/04/21 04:45:40;;;;;;;32.35;20.55;;;8.90;76.30;;;;;;5076805;28;20086;-82
2021/04/21 04:48:13;;;;;;;32.47;19.90;;;9.00;76.20;;;;;;5076769;28;20067;-82
2021/04/21 04:50:40;;;;;;;34.72;21.05;;;9.00;75.90;;;;;;5077773;28;20029;-82
2021/04/21 04:53:07;;;;;;;34.00;21.15;;;9.10;76.10;;;;;;5077418;28;20028;-83
2021/04/21 04:55:34;;;;;;;34.45;19.58;;;9.20;76.20;;;;;;5077201;28;20115;-81
2021/04/21 04:58:04;;;;;;;34.47;20.67;;;9.30;76.00;;;;;;5076656;28;20029;-83
2021/04/21 05:00:31;;;;;;;31.17;18.73;;;9.50;76.10;;;;;;5076348;28;20049;-82
2021/04/21 05:03:22;;;;;;;31.83;19.30;;;9.80;76.10;;;;;;5076036;28;20031;-82
2021/04/21 05:05:56;;;;;;;32.88;19.35;;;10.00;75.50;;;;;;5076518;28;20020;-82
2021/04/21 05:08:27;;;;;;;31.40;19.33;;;10.30;74.80;;;;;;5075710;28;20072;-82
2021/04/21 05:11:03;;;;;;;34.50;19.40;;;10.50;74.40;;;;;;5075798;28;20021;-82
2021/04/21 05:13:46;;;;;;;29.48;17.08;;;10.70;74.00;;;;;;5076451;28;20028;-82
2021/04/21 05:16:12;;;;;;;25.30;15.23;;;10.90;73.50;;;;;;5075041;28;20024;-82
2021/04/21 05:19:13;;;;;;;19.00;13.25;;;11.10;73.00;;;;;;5076410;28;20527;-82
2021/04/21 05:21:54;;;;;;;19.27;12.52;;;11.30;71.80;;;;;;5054019;28;20021;-82
2021/04/21 05:24:32;;;;;;;24.60;14.10;;;11.50;71.30;;;;;;5073901;28;20044;-82
2021/04/21 05:27:42;;;;;;;16.30;11.63;;;11.60;70.50;;;;;;5075910;28;20047;-83
2021/04/21 05:34:00;;;;;;;19.52;11.90;;;11.70;69.50;;;;;;5054257;28;20060;-81
2021/04/21 05:37:03;;;;;;;17.92;11.65;;;11.60;68.80;;;;;;5054580;28;20032;-82
2021/04/21 05:39:57;;;;;;;23.10;11.18;;;11.50;68.70;;;;;;5055748;28;20060;-81
2021/04/21 05:42:44;;;;;;;18.15;12.23;;;11.40;69.10;;;;;;5054766;28;20064;-82
2021/04/21 05:45:52;;;;;;;16.40;11.15;;;11.50;69.70;;;;;;5064928;28;20029;-82
2021/04/21 05:48:24;;;;;;;19.25;13.50;;;11.50;69.50;;;;;;5078483;28;20394;-82
2021/04/21 05:51:23;;;;;;;21.80;13.40;;;11.50;69.10;;;;;;5073543;28;20039;-83
2021/04/21 05:54:26;;;;;;;18.40;12.05;;;11.50;68.80;;;;;;5074262;28;20399;-83
2021/04/21 05:57:13;;;;;;;17.80;12.18;;;11.50;68.80;;;;;;5074230;28;20025;-82
2021/04/21 05:59:55;;;;;;;19.85;12.43;;;11.50;68.90;;;;;;5072298;28;20032;-84
2021/04/21 06:02:24;;;;;;;17.60;12.20;;;11.40;69.10;;;;;;5072533;28;20106;-83
2021/04/21 06:05:13;;;;;;;16.80;11.50;;;11.40;69.40;;;;;;5074461;28;20043;-83
2021/04/21 06:07:43;;;;;;;18.38;12.07;;;11.50;69.30;;;;;;5074090;28;20037;-83
2021/04/21 06:10:29;;;;;;;17.40;12.25;;;11.50;69.20;;;;;;5075342;28;20044;-82
2021/04/21 06:13:00;;;;;;;19.55;11.88;;;11.60;69.30;;;;;;5074573;28;20033;-83
2021/04/21 06:15:38;;;;;;;18.38;13.38;;;11.50;69.40;;;;;;5071523;28;20016;-83
2021/04/21 06:18:06;;;;;;;18.17;12.55;;;11.60;69.60;;;;;;5075268;28;20359;-82
2021/04/21 06:20:43;;;;;;;21.42;13.90;;;11.60;69.60;;;;;;5075319;28;20021;-81
2021/04/21 06:23:18;;;;;;;18.58;12.40;;;11.50;69.40;;;;;;5075343;28;20090;-82
2021/04/21 06:25:49;;;;;;;18.80;12.90;;;11.30;69.60;;;;;;5073780;28;20036;-81
2021/04/21 06:28:20;;;;;;;21.58;13.63;;;11.10;70.20;;;;;;5067909;28;20039;-82
2021/04/21 06:30:49;;;;;;;21.88;13.48;;;11.00;70.90;;;;;;5073018;28;20064;-82
2021/04/21 06:36:45;;;;;;;22.67;13.73;;;10.70;72.50;;;;;;5070588;28;20060;-83
2021/04/21 06:39:12;;;;;;;25.13;14.48;;;10.60;73.30;;;;;;5071503;28;20025;-82
2021/04/21 06:41:39;;;;;;;18.73;12.65;;;10.60;74.00;;;;;;5054386;28;20032;-83
2021/04/21 06:44:05;;;;;;;17.90;12.93;;;10.60;74.10;;;;;;5074144;28;20170;-82
2021/04/21 06:46:32;;;;;;;17.83;13.30;;;10.50;74.30;;;;;;5071586;28;20074;-82
2021/04/21 06:49:01;;;;;;;20.08;12.60;;;10.40;74.90;;;;;;5074540;28;20028;-82
2021/04/21 06:51:29;;;;;;;21.98;14.35;;;10.50;75.40;;;;;;5073663;28;20449;-82
2021/04/21 06:53:56;;;;;;;20.70;12.93;;;10.50;76.00;;;;;;5074031;28;20031;-82
2021/04/21 06:56:43;;;;;;;20.65;12.18;;;10.70;76.40;;;;;;5073378;28;20017;-82
2021/04/21 06:59:18;;;;;;;18.20;12.75;;;10.80;76.40;;;;;;5071811;28;20036;-83
2021/04/21 07:01:50;;;;;;;21.13;13.45;;;11.00;76.10;;;;;;5073737;28;20016;-83
2021/04/21 07:04:18;;;;;;;18.00;11.73;;;11.20;76.10;;;;;;5073082;28;20059;-83
2021/04/21 07:06:46;;;;;;;17.67;12.10;;;11.40;75.80;;;;;;5073207;28;20028;-82
2021/04/21 07:09:22;;;;;;;15.98;10.88;;;11.60;75.00;;;;;;5072750;28;20064;-82
2021/04/21 07:12:00;;;;;;;19.15;11.77;;;11.80;74.70;;;;;;5070854;28;20471;-83
2021/04/21 07:14:28;;;;;;;17.50;11.88;;;12.20;74.70;;;;;;5070639;28;20025;-83
2021/04/21 07:16:56;;;;;;;18.13;11.27;;;12.60;74.10;;;;;;5073470;28;20028;-83
2021/04/21 07:19:24;;;;;;;17.45;12.07;;;12.80;72.30;;;;;;5072545;28;20086;-82
2021/04/21 07:21:51;;;;;;;16.77;10.95;;;12.80;71.20;;;;;;5072793;28;20020;-83
2021/04/21 07:24:18;;;;;;;15.88;11.20;;;12.80;70.50;;;;;;5073916;28;20107;-83
2021/04/21 07:26:46;;;;;;;13.13;9.90;;;12.70;70.80;;;;;;5074337;28;20056;-83
2021/04/21 07:29:22;;;;;;;11.60;8.57;;;12.80;70.60;;;;;;5073807;28;20032;-83
2021/04/21 07:31:49;;;;;;;13.63;8.68;;;12.80;69.50;;;;;;5072089;28;20064;-82
2021/04/21 07:34:30;;;;;;;14.75;10.20;;;12.70;69.40;;;;;;5072862;28;20091;-82
2021/04/21 07:36:56;;;;;;;12.43;9.45;;;12.80;69.60;;;;;;5070405;28;20049;-81
2021/04/21 07:39:30;;;;;;;11.68;8.68;;;12.80;69.40;;;;;;5072059;28;20024;-83
2021/04/21 07:41:55;;;;;;;12.45;9.15;;;12.80;68.60;;;;;;5069945;28;20024;-83
2021/04/21 07:44:29;;;;;;;13.02;10.07;;;12.60;68.20;;;;;;5071982;28;20032;-82
2021/04/21 07:47:07;;;;;;;11.07;8.90;;;12.50;68.30;;;;;;5071547;28;20470;-83
2021/04/21 07:49:35;;;;;;;10.18;9.02;;;12.40;68.60;;;;;;5069997;28;20120;-83
2021/04/21 07:52:01;;;;;;;10.95;8.70;;;12.40;68.80;;;;;;5071677;28;20059;-84
2021/04/21 07:54:29;;;;;;;11.48;8.73;;;12.50;68.60;;;;;;5071762;28;20056;-83
2021/04/21 07:56:55;;;;;;;11.65;9.13;;;12.60;68.50;;;;;;5071090;28;20462;-82
2021/04/21 07:59:24;;;;;;;11.32;8.68;;;12.90;68.60;;;;;;5073297;28;20020;-81
2021/04/21 08:01:51;;;;;;;10.10;8.25;;;13.10;68.10;;;;;;5071208;28;20040;-83
2021/04/21 08:04:22;;;;;;;13.20;8.65;;;13.40;67.50;;;;;;5072533;28;20032;-81
2021/04/21 08:06:50;;;;;;;11.73;9.18;;;13.70;66.40;;;;;;5071425;28;20035;-83
2021/04/21 08:09:17;;;;;;;9.15;7.70;;;13.90;65.40;;;;;;5072402;28;20111;-82
2021/04/21 08:11:44;;;;;;;10.68;7.35;;;14.20;65.00;;;;;;5072785;28;20054;-83
2021/04/21 08:14:10;;;;;;;8.63;7.20;;;14.60;64.10;;;;;;5072477;28;20056;-83
2021/04/21 08:16:36;;;;;;;9.70;8.15;;;14.90;63.10;;;;;;5072552;28;20104;-84
2021/04/21 08:19:19;;;;;;;9.57;7.95;;;15.20;62.70;;;;;;5076489;28;20056;-82
2021/04/21 08:21:47;;;;;;;10.75;8.73;;;15.40;61.30;;;;;;5076967;28;20025;-82
2021/04/21 08:24:15;;;;;;;11.30;8.57;;;15.60;61.30;;;;;;5072400;28;20433;-82
2021/04/21 08:26:48;;;;;;;10.82;8.23;;;16.00;60.90;;;;;;5072438;28;20031;-83
2021/04/21 08:29:16;;;;;;;9.20;7.75;;;16.30;59.30;;;;;;5072032;28;20039;-83
2021/04/21 08:31:50;;;;;;;10.70;8.10;;;16.20;58.10;;;;;;5072197;28;20464;-83
2021/04/21 08:34:16;;;;;;;13.02;9.25;;;15.90;57.90;;;;;;5071917;28;20025;-82
2021/04/21 08:36:41;;;;;;;10.48;8.50;;;15.70;58.10;;;;;;5042060;28;843658;-83
2021/04/21 08:39:08;;;;;;;11.35;8.35;;;15.40;58.30;;;;;;5071495;28;20043;-83
2021/04/21 08:41:38;;;;;;;13.52;9.70;;;15.20;58.30;;;;;;5072843;28;20067;-83
2021/04/21 08:44:04;;;;;;;10.52;9.07;;;14.90;58.80;;;;;;5073800;28;20024;-82
2021/04/21 08:46:30;;;;;;;12.50;9.02;;;14.70;59.30;;;;;;5073364;28;20029;-82
2021/04/21 08:49:00;;;;;;;10.93;8.70;;;14.60;59.80;;;;;;5073152;28;20056;-83
2021/04/21 08:51:27;;;;;;;10.68;8.27;;;14.50;60.30;;;;;;5072870;28;20355;-83
2021/04/21 08:53:56;;;;;;;10.07;7.45;;;14.70;61.10;;;;;;5071893;28;20032;-84
2021/04/21 08:56:23;;;;;;;8.43;7.53;;;15.30;61.20;;;;;;5072017;28;20032;-82
2021/04/21 08:58:50;;;;;;;9.85;7.30;;;16.30;61.10;;;;;;5073037;28;20383;-83
2021/04/21 09:01:16;;;;;;;8.90;7.20;;;17.60;59.80;;;;;;5072731;28;20163;-82
2021/04/21 09:03:44;;;;;;;7.15;6.45;;;19.00;57.70;;;;;;5072853;28;20040;-82
2021/04/21 09:06:10;;;;;;;7.88;6.68;;;20.30;54.70;;;;;;5073373;28;20039;-84
2021/04/21 09:08:39;;;;;;;8.20;7.03;;;21.50;52.00;;;;;;5073766;28;20052;-83
2021/04/21 09:11:05;;;;;;;9.27;6.97;;;21.90;48.70;;;;;;5076827;28;20035;-84
2021/04/21 09:13:32;;;;;;;7.03;5.72;;;21.50;47.70;;;;;;5075086;28;20028;-83
2021/04/21 09:15:58;;;;;;;6.43;5.72;;;21.30;47.20;;;;;;5077067;28;20024;-83
2021/04/21 09:18:28;;;;;;;6.30;5.60;;;20.90;46.90;;;;;;5076223;28;20033;-82
2021/04/21 09:20:55;;;;;;;8.68;7.03;;;20.20;46.70;;;;;;5076542;28;20085;-83
2021/04/21 09:23:21;;;;;;;9.63;6.95;;;19.70;47.50;;;;;;5075320;28;20468;-82
2021/04/21 09:25:54;;;;;;;8.20;7.18;;;19.10;48.10;;;;;;5077051;28;20404;-82
2021/04/21 09:28:24;;;;;;;8.05;6.60;;;18.50;48.60;;;;;;5076354;28;20124;-81
2021/04/21 09:30:51;;;;;;;7.55;6.65;;;18.00;49.30;;;;;;5076461;28;20135;-82
2021/04/21 09:33:17;;;;;;;8.75;7.10;;;17.40;50.10;;;;;;5076267;28;20419;-83
2021/04/21 09:35:45;;;;;;;11.73;7.20;;;17.00;51.20;;;;;;5076275;28;20405;-83
2021/04/21 09:38:26;;;;;;;10.32;7.32;;;16.60;51.90;;;;;;5074710;28;20052;-83
2021/04/21 09:40:58;;;;;;;8.48;7.10;;;16.30;53.00;;;;;;5075613;28;20029;-83
2021/04/21 09:43:34;;;;;;;7.90;6.90;;;16.20;54.00;;;;;;5076047;28;20484;-84
2021/04/21 09:46:05;;;;;;;11.38;8.20;;;16.50;54.50;;;;;;5075961;28;20308;-83
2021/04/21 09:48:37;;;;;;;8.88;7.63;;;17.00;54.10;;;;;;5076517;28;20044;-83
2021/04/21 09:51:03;;;;;;;8.00;6.35;;;17.40;53.90;;;;;;5076474;28;20386;-83
2021/04/21 09:53:29;;;;;;;7.55;6.30;;;17.90;53.50;;;;;;5076129;28;20050;-83
2021/04/21 09:56:01;;;;;;;7.40;6.55;;;18.30;52.00;;;;;;5075563;28;20170;-83
2021/04/21 09:58:31;;;;;;;8.85;6.68;;;18.30;51.60;;;;;;5075185;28;20039;-84
2021/04/21 10:00:57;;;;;;;10.38;7.72;;;18.20;51.30;;;;;;5077897;28;20040;-82
2021/04/21 10:03:23;;;;;;;9.02;6.80;;;18.00;51.90;;;;;;5077939;28;20386;-82
2021/04/21 10:05:48;;;;;;;10.05;7.43;;;18.10;52.60;;;;;;5074849;28;20029;-83
2021/04/21 10:08:22;;;;;;;9.25;6.78;;;19.00;53.40;;;;;;5075598;28;20040;-83
2021/04/21 10:11:00;;;;;;;9.88;6.07;;;20.60;52.10;;;;;;5075618;28;20116;-83
2021/04/21 10:13:39;;;;;;;7.15;5.38;;;22.20;48.60;;;;;;5075082;28;20376;-82
2021/04/21 10:16:06;;;;;;;7.47;5.03;;;23.50;46.90;;;;;;5075256;28;20466;-84
2021/04/21 10:18:32;;;;;;;5.35;4.57;;;24.30;43.90;;;;;;5075554;28;20029;-83
2021/04/21 10:20:58;;;;;;;4.80;4.32;;;24.70;42.30;;;;;;5075251;28;20024;-82
2021/04/21 10:23:24;;;;;;;4.25;3.85;;;24.90;40.10;;;;;;5073976;28;20481;-83
2021/04/21 10:25:50;;;;;;;5.03;3.67;;;25.00;39.10;;;;;;5075199;28;20030;-87
2021/04/21 10:28:16;;;;;;;4.18;3.70;;;25.20;38.80;;;;;;5074995;28;20107;-84
2021/04/21 10:30:43;;;;;;;4.85;3.75;;;25.30;37.90;;;;;;5075079;28;20039;-83
2021/04/21 10:33:10;;;;;;;4.13;3.72;;;25.10;37.50;;;;;;5075032;28;20020;-85
2021/04/21 10:35:36;;;;;;;3.97;3.60;;;24.70;37.30;;;;;;5073982;28;20024;-82
2021/04/21 10:38:02;;;;;;;4.20;3.78;;;24.10;37.50;;;;;;5074925;28;20082;-84
2021/04/21 10:40:30;;;;;;;4.55;4.15;;;23.40;38.10;;;;;;5073798;28;20139;-83
2021/04/21 10:43:02;;;;;;;5.18;4.50;;;22.50;39.00;;;;;;5074943;28;20057;-83
2021/04/21 10:45:29;;;;;;;4.70;4.30;;;21.50;39.90;;;;;;5075335;28;20029;-83
2021/04/21 10:47:57;;;;;;;6.07;3.33;;;20.40;41.00;;;;;;5074124;28;20035;-84
2021/04/21 10:50:44;;;;;;;5.10;3.90;;;19.70;41.40;;;;;;5075667;28;20032;-83
2021/04/21 10:53:43;;;;;;;6.20;4.40;;;19.00;42.10;;;;;;5088353;28;20034;-84
2021/04/21 10:56:25;;;;;;;5.38;4.38;;;18.50;43.00;;;;;;5080743;28;20071;-83
2021/04/21 10:58:56;;;;;;;5.10;4.25;;;18.20;43.70;;;;;;5075010;28;20028;-84
2021/04/21 11:01:37;;;;;;;5.00;4.03;;;18.00;43.80;;;;;;5073591;28;20031;-83
2021/04/21 11:04:05;;;;;;;5.20;4.05;;;17.90;43.70;;;;;;5074931;28;20028;-83
2021/04/21 11:06:40;;;;;;;8.73;4.38;;;17.70;43.70;;;;;;5074188;28;20029;-82
2021/04/21 11:09:10;;;;;;;6.63;4.30;;;17.50;44.10;;;;;;5073674;28;20068;-82
2021/04/21 11:11:48;;;;;;;4.70;3.65;;;17.40;44.80;;;;;;5074407;28;20028;-82
2021/04/21 11:14:33;;;;;;;6.43;4.25;;;17.40;45.40;;;;;;5073588;28;20028;-83
2021/04/21 11:17:07;;;;;;;4.43;3.80;;;18.00;46.30;;;;;;5073786;28;20032;-84
2021/04/21 11:19:40;;;;;;;6.93;4.10;;;19.90;45.40;;;;;;5070890;28;20020;-83
2021/04/21 11:22:19;;;;;;;4.07;3.67;;;21.10;42.90;;;;;;5073115;28;20105;-83
2021/04/21 11:25:24;;;;;;;4.30;3.90;;;21.20;41.40;;;;;;5071890;28;20112;-84
2021/04/21 11:27:51;;;;;;;4.25;3.85;;;20.90;39.90;;;;;;5073087;28;20036;-83
2021/04/21 11:30:34;;;;;;;4.47;4.07;;;20.40;40.10;;;;;;5073351;28;20028;-84
2021/04/21 11:33:00;;;;;;;4.43;4.00;;;19.70;40.10;;;;;;5073560;28;20066;-83
2021/04/21 11:35:28;;;;;;;6.00;4.28;;;19.10;40.50;;;;;;5072805;28;20035;-84
2021/04/21 11:37:53;;;;;;;8.00;5.55;;;18.40;41.30;;;;;;5070623;28;20564;-82
2021/04/21 11:40:30;;;;;;;7.20;5.38;;;17.90;42.30;;;;;;5072006;28;20037;-82
2021/04/21 11:43:16;;;;;;;6.85;5.65;;;17.30;44.90;;;;;;5069943;28;20024;-83
2021/04/21 11:45:43;;;;;;;8.50;7.55;;;16.30;50.70;;;;;;5073191;28;20020;-83
2021/04/21 11:48:09;;;;;;;9.07;5.25;;;15.20;53.90;;;;;;5073314;28;20027;-84
2021/04/21 11:50:43;;;;;;;9.38;7.35;;;14.40;56.50;;;;;;5072303;28;20386;-84
2021/04/21 11:53:20;;;;;;;5.50;4.97;;;13.60;58.70;;;;;;5073665;28;20119;-83
2021/04/21 11:55:57;;;;;;;7.05;5.22;;;13.10;60.00;;;;;;5073228;28;20025;-83
2021/04/21 11:58:36;;;;;;;9.10;6.47;;;12.80;61.50;;;;;;5073753;28;20331;-84
2021/04/21 12:01:07;;;;;;;11.02;6.57;;;12.80;63.40;;;;;;5073534;28;20036;-84
2021/04/21 12:03:44;;;;;;;9.93;5.68;;;13.10;65.00;;;;;;5073248;28;20369;-83
2021/04/21 12:06:11;;;;;;;8.18;4.90;;;13.70;66.00;;;;;;5073042;28;20158;-85
2021/04/21 12:08:38;;;;;;;4.63;4.22;;;14.60;66.00;;;;;;5072862;28;20079;-85
2021/04/21 12:11:06;;;;;;;4.30;3.90;;;15.50;65.10;;;;;;5073233;28;20100;-83
2021/04/21 12:13:34;;;;;;;4.78;3.45;;;16.60;64.30;;;;;;5072711;28;20474;-84
2021/04/21 12:16:08;;;;;;;4.95;3.65;;;17.60;62.30;;;;;;5071791;28;20046;-77
2021/04/21 12:18:39;;;;;;;6.55;3.55;;;19.10;60.60;;;;;;5072206;28;20089;-81
2021/04/21 12:21:14;;;;;;;3.70;3.35;;;20.40;58.40;;;;;;5071704;28;20036;-79
2021/04/21 12:23:40;;;;;;;3.35;3.05;;;21.80;55.30;;;;;;5072392;28;20451;-80
2021/04/21 12:26:17;;;;;;;3.40;3.10;;;23.00;53.90;;;;;;5073075;28;20036;-77
2021/04/21 12:28:57;;;;;;;4.53;3.55;;;24.10;50.20;;;;;;5073085;28;20135;-77
2021/04/21 12:31:24;;;;;;;3.80;3.45;;;25.10;47.60;;;;;;5072761;28;20477;-78
2021/04/21 12:33:52;;;;;;;3.55;3.25;;;25.80;47.00;;;;;;5072840;28;20255;-79
2021/04/21 12:36:18;;;;;;;3.60;3.15;;;25.90;44.30;;;;;;5072494;28;20078;-79
2021/04/21 12:39:04;;;;;;;3.58;3.08;;;25.80;43.00;;;;;;5072815;28;20063;-79
2021/04/21 12:41:30;;;;;;;4.28;3.65;;;25.90;41.90;;;;;;5072787;28;20109;-78
2021/04/21 12:44:18;;;;;;;3.17;2.88;;;25.80;42.10;;;;;;5074412;28;20363;-79
2021/04/21 12:46:44;;;;;;;4.00;3.60;;;24.90;40.50;;;;;;5072954;28;20082;-80
2021/04/21 12:49:10;;;;;;;4.75;3.55;;;24.10;41.70;;;;;;5075590;28;20041;-78
2021/04/21 12:51:47;;;;;;;5.25;3.15;;;24.10;42.30;;;;;;5075212;28;20025;-78
2021/04/21 12:54:32;;;;;;;4.88;3.70;;;24.10;41.20;;;;;;5075227;28;20035;-78
2021/04/21 12:56:58;;;;;;;4.72;3.53;;;23.70;41.30;;;;;;5074601;28;20020;-80
2021/04/21 12:59:23;;;;;;;3.78;3.47;;;23.90;42.00;;;;;;5074947;28;20024;-79
2021/04/21 13:01:49;;;;;;;3.65;3.15;;;24.40;41.20;;;;;;5074958;28;20016;-79
2021/04/21 13:04:16;;;;;;;5.22;3.30;;;24.30;40.60;;;;;;5074908;28;20027;-79
2021/04/21 13:06:51;;;;;;;4.45;3.53;;;24.00;40.60;;;;;;5075102;28;20036;-78
2021/04/21 13:09:18;;;;;;;5.57;3.58;;;23.40;40.60;;;;;;5073313;28;20033;-80
2021/04/21 13:11:46;;;;;;;3.20;2.90;;;22.90;41.00;;;;;;5074627;28;20111;-79
2021/04/21 13:14:13;;;;;;;3.25;2.95;;;22.50;41.20;;;;;;5074987;28;20032;-80
2021/04/21 13:16:41;;;;;;;3.35;3.00;;;22.70;42.00;;;;;;5074596;28;20086;-78
2021/04/21 13:19:27;;;;;;;3.28;2.95;;;22.40;40.90;;;;;;5074464;28;20024;-78
2021/04/21 13:22:00;;;;;;;4.63;3.13;;;21.60;41.30;;;;;;5073907;28;20032;-79
2021/04/21 13:24:27;;;;;;;4.30;3.38;;;20.90;42.10;;;;;;5073604;28;20491;-78
2021/04/21 13:26:58;;;;;;;3.83;3.45;;;20.20;43.00;;;;;;5074462;28;20024;-79
2021/04/21 13:29:34;;;;;;;3.95;3.40;;;19.50;43.90;;;;;;5075136;28;20438;-78
2021/04/21 13:32:11;;;;;;;5.00;4.13;;;18.80;45.00;;;;;;5072174;28;20382;-79
2021/04/21 13:34:38;;;;;;;5.88;4.05;;;18.10;46.60;;;;;;5071342;28;20048;-78